Terminal Aerodrome Forecast
Issued by NWS

Home | Current Version | Previous Version | Text Only | Print | Product List | Glossary On
Versions: 1 2 3 4 5 6 7 8 9 10 11 12 13 14 15 16 17 18 19 20 21 22
000
FTUS42 KILM 180500
TAFCRE
TAF
KCRE 180522Z 1806/1906 04007KT P6SM BKN050 BKN070
     FM180900 03003KT 4SM BR SCT007 BKN020
     FM181300 04005KT P6SM FEW007 BKN025
     FM181600 09007KT P6SM SCT025 SCT040=

USA.gov is the U.S. government's official web portal to all federal, state and local government web resources and services.